Time;durP1;ratioP1;P1;durP2;ratioP2;P2;SDS_P1;SDS_P2;PMS_P1;PMS_P2;Temp;Humidity;BMP_temperature;BMP_pressure;BME280_temperature;BME280_humidity;BME280_pressure;Samples;Min_cycle;Max_cycle;Signal;HPM_P1;HPM_P2
2022/09/17 00:01:30;;;;;;;34.10;30.60;;;;;;;7.94;96.08;96889.42;109495;1281;23738;-92
2022/09/17 00:04:02;;;;;;;33.10;30.20;;;;;;;7.91;96.32;96887.36;109207;1281;22799;-92
2022/09/17 00:06:35;;;;;;;33.70;30.50;;;;;;;7.78;96.84;96888.16;109077;1281;25277;-94
2022/09/17 00:09:06;;;;;;;29.40;26.50;;;;;;;7.65;96.76;96889.86;109233;1281;22661;-91
2022/09/17 00:11:36;;;;;;;33.10;29.80;;;;;;;7.58;96.92;96890.88;109074;1280;22655;-92
2022/09/17 00:14:06;;;;;;;33.50;30.50;;;;;;;7.52;96.63;96898.38;109070;1281;23771;-92
2022/09/17 00:16:37;;;;;;;28.50;25.90;;;;;;;7.52;96.90;96892.80;108481;1281;22599;-91
2022/09/17 00:19:08;;;;;;;28.80;26.30;;;;;;;7.43;96.89;96893.33;108011;1281;22593;-92
2022/09/17 00:21:37;;;;;;;28.00;25.50;;;;;;;7.33;97.09;96883.65;108056;1281;22471;-90
2022/09/17 00:24:06;;;;;;;25.00;22.80;;;;;;;7.26;97.54;96882.39;107345;1280;22481;-90
2022/09/17 00:26:34;;;;;;;24.60;21.30;;;;;;;7.27;97.54;96880.34;106991;1281;22535;-91
2022/09/17 00:29:04;;;;;;;25.70;23.40;;;;;;;7.25;97.21;96879.34;107214;1281;25270;-90
2022/09/17 00:31:33;;;;;;;25.40;22.70;;;;;;;7.27;97.83;96879.69;107201;1282;23299;-90
2022/09/17 00:34:03;;;;;;;26.60;24.00;;;;;;;7.35;97.93;96876.29;107322;1281;22540;-91
2022/09/17 00:36:37;;;;;;;24.90;22.80;;;;;;;7.41;97.55;96877.33;107371;1281;25477;-92
2022/09/17 00:39:10;;;;;;;26.10;22.80;;;;;;;7.30;97.18;96878.44;106981;1280;25234;-91
2022/09/17 00:41:38;;;;;;;27.10;24.60;;;;;;;7.28;97.68;96881.74;106809;1280;25481;-90
2022/09/17 00:44:38;;;;;;;26.70;24.10;;;;;;;7.31;97.86;96885.67;107221;1279;23030;-91
2022/09/17 00:47:31;;;;;;;26.90;24.20;;;;;;;7.33;97.88;96881.87;107631;1279;22541;-88
2022/09/17 00:50:14;;;;;;;26.20;23.70;;;;;;;7.36;97.78;96885.23;109493;1279;22541;-91
2022/09/17 00:52:53;;;;;;;25.40;22.80;;;;;;;7.36;97.51;96884.84;109186;1279;24097;-92
2022/09/17 00:55:35;;;;;;;23.50;21.30;;;;;;;7.39;97.49;96884.45;106255;1280;22696;-92
2022/09/17 00:58:07;;;;;;;23.30;21.00;;;;;;;7.39;97.39;96885.73;106307;1280;22583;-91
2022/09/17 01:00:36;;;;;;;25.50;23.20;;;;;;;7.37;97.42;96887.67;106479;1280;24380;-90
2022/09/17 01:03:04;;;;;;;26.10;23.70;;;;;;;7.34;97.53;96887.17;106110;1281;22537;-93
2022/09/17 01:05:44;;;;;;;23.50;21.30;;;;;;;7.35;97.78;96885.14;106473;1280;22672;-92
2022/09/17 01:08:39;;;;;;;24.10;21.90;;;;;;;7.37;97.64;96881.02;106425;1279;22576;-92
2022/09/17 01:11:33;;;;;;;21.80;19.80;;;;;;;7.32;97.76;96878.99;106208;1280;24288;-91
2022/09/17 01:14:23;;;;;;;23.20;21.10;;;;;;;7.15;97.73;96873.96;106165;1279;24105;-91
2022/09/17 01:17:06;;;;;;;23.50;21.20;;;;;;;6.93;97.84;96873.27;106137;1279;22583;-89
2022/09/17 01:19:59;;;;;;;22.20;19.80;;;;;;;6.81;98.90;96872.52;106118;1279;22775;-89
2022/09/17 01:22:33;;;;;;;21.50;19.50;;;;;;;6.71;98.37;96871.91;106208;1279;24274;-91
2022/09/17 01:25:23;;;;;;;20.70;18.70;;;;;;;6.62;98.52;96869.42;106104;1279;24227;-91
2022/09/17 01:28:06;;;;;;;19.90;18.00;;;;;;;6.66;99.08;96868.05;105796;1281;22633;-90
2022/09/17 01:31:03;;;;;;;21.20;19.10;;;;;;;6.84;99.90;96869.09;106125;1280;22750;-89
2022/09/17 01:33:40;;;;;;;21.10;19.20;;;;;;;6.95;99.63;96871.06;105562;1281;22605;-90
2022/09/17 01:36:45;;;;;;;21.40;19.30;;;;;;;7.06;99.67;96876.61;106160;1280;25516;-92
2022/09/17 01:39:47;;;;;;;23.40;21.30;;;;;;;7.10;98.99;96872.82;106197;1278;22715;-90
2022/09/17 01:42:34;;;;;;;24.10;22.10;;;;;;;7.14;98.85;96875.59;106240;1279;22610;-91
2022/09/17 01:45:15;;;;;;;23.10;21.10;;;;;;;7.10;98.64;96873.19;106251;1280;22620;-92
2022/09/17 01:47:49;;;;;;;19.80;17.60;;;;;;;7.04;98.41;96872.31;105812;1281;24315;-91
2022/09/17 01:50:23;;;;;;;17.70;15.80;;;;;;;7.03;98.39;96873.18;106190;1280;25245;-91
2022/09/17 01:52:54;;;;;;;20.40;18.40;;;;;;;7.07;99.07;96873.04;105896;1280;25355;-90
2022/09/17 01:55:31;;;;;;;19.90;17.90;;;;;;;7.06;99.35;96876.77;106120;1280;22542;-92
2022/09/17 01:58:06;;;;;;;18.40;16.60;;;;;;;7.06;99.76;96873.17;106164;1279;22705;-91
2022/09/17 02:00:37;;;;;;;18.20;15.10;;;;;;;7.09;99.60;96873.65;106196;1280;22756;-90
2022/09/17 02:03:12;;;;;;;17.00;15.40;;;;;;;7.19;99.96;96869.77;106091;1279;22900;-89
2022/09/17 02:05:48;;;;;;;17.00;15.50;;;;;;;7.31;100.00;96864.49;106158;1280;22545;-90
2022/09/17 02:08:25;;;;;;;15.00;13.60;;;;;;;7.42;99.94;96864.83;106130;1280;23108;-91
2022/09/17 02:11:01;;;;;;;15.70;14.20;;;;;;;7.47;99.84;96869.04;105726;1281;22679;-91
2022/09/17 02:13:42;;;;;;;16.10;14.40;;;;;;;7.57;100.00;96871.57;106047;1280;24766;-91
2022/09/17 02:16:16;;;;;;;15.30;13.80;;;;;;;7.63;100.00;96870.06;106077;1280;22559;-90
2022/09/17 02:19:15;;;;;;;18.00;16.30;;;;;;;7.65;100.00;96875.60;105706;1281;22914;-91
2022/09/17 02:22:09;;;;;;;15.70;14.20;;;;;;;7.69;100.00;96877.50;106180;1281;24216;-89
2022/09/17 02:25:04;;;;;;;13.50;12.20;;;;;;;7.74;100.00;96880.59;105797;1281;22552;-93
2022/09/17 02:27:38;;;;;;;14.90;13.50;;;;;;;7.80;99.98;96884.20;105995;1281;22743;-91
2022/09/17 02:30:06;;;;;;;15.20;13.60;;;;;;;7.82;100.00;96885.98;105615;1281;25358;-90
2022/09/17 02:32:34;;;;;;;15.20;13.80;;;;;;;7.87;99.76;96893.42;105686;1281;24227;-91
2022/09/17 02:35:03;;;;;;;16.10;14.50;;;;;;;7.90;99.90;96892.81;106361;1281;22603;-92
2022/09/17 02:37:32;;;;;;;16.40;14.80;;;;;;;7.92;99.83;96891.76;106228;1281;22570;-91
2022/09/17 02:40:01;;;;;;;17.10;15.60;;;;;;;7.91;99.73;96891.08;106156;1281;22675;-91
2022/09/17 02:42:55;;;;;;;18.90;15.70;;;;;;;7.90;99.87;96889.59;106211;1281;22663;-92
2022/09/17 02:45:35;;;;;;;21.80;19.80;;;;;;;7.92;99.96;96892.86;106128;1281;22671;-90
2022/09/17 02:48:20;;;;;;;23.50;21.60;;;;;;;7.96;99.82;96892.60;106222;1281;22780;-89
2022/09/17 02:50:56;;;;;;;28.20;26.00;;;;;;;8.01;99.82;96895.73;106199;1281;22543;-91
2022/09/17 02:53:44;;;;;;;27.20;25.00;;;;;;;8.04;100.00;96896.83;106091;1281;22541;-92
2022/09/17 02:56:38;;;;;;;28.10;25.90;;;;;;;8.06;99.98;96889.69;106148;1281;23436;-92
2022/09/17 02:59:31;;;;;;;24.20;21.90;;;;;;;8.05;99.96;96884.06;106092;1281;25241;-93
2022/09/17 03:02:12;;;;;;;21.90;19.90;;;;;;;8.05;99.90;96883.16;106130;1281;25362;-91
2022/09/17 03:04:41;;;;;;;19.20;17.40;;;;;;;8.02;99.77;96878.09;106240;1281;25525;-89
2022/09/17 03:07:10;;;;;;;18.70;16.90;;;;;;;8.04;99.99;96869.39;106461;1281;24224;-91
2022/09/17 03:09:40;;;;;;;19.70;17.80;;;;;;;8.06;99.97;96863.66;106210;1281;22776;-92
2022/09/17 03:12:10;;;;;;;21.80;20.00;;;;;;;8.04;99.95;96861.40;105825;1281;22583;-91
2022/09/17 03:14:38;;;;;;;19.90;16.90;;;;;;;8.01;100.00;96857.66;108699;1281;22561;-87
2022/09/17 03:17:06;;;;;;;23.50;21.00;;;;;;;7.97;99.72;96855.69;109452;1281;22496;-86
2022/09/17 03:19:34;;;;;;;20.40;18.60;;;;;;;7.94;99.85;96856.23;108762;1281;25260;-91
2022/09/17 03:22:02;;;;;;;19.30;17.50;;;;;;;7.94;99.86;96857.30;105785;1281;22732;-92
2022/09/17 03:24:30;;;;;;;17.60;15.80;;;;;;;7.98;100.00;96857.27;105747;1283;22539;-92
2022/09/17 03:26:58;;;;;;;18.30;16.60;;;;;;;7.96;99.82;96857.58;105661;1283;25363;-91
2022/09/17 03:29:26;;;;;;;17.30;15.50;;;;;;;7.92;99.65;96849.52;106153;1281;22874;-92
2022/09/17 03:31:54;;;;;;;17.90;16.00;;;;;;;7.88;99.99;96850.02;105788;1281;25246;-91
2022/09/17 03:34:22;;;;;;;16.20;14.70;;;;;;;7.82;99.97;96841.73;106120;1281;23683;-90
2022/09/17 03:36:50;;;;;;;15.20;13.70;;;;;;;7.81;100.00;96840.91;105786;1281;25433;-87
2022/09/17 03:39:18;;;;;;;13.10;11.80;;;;;;;7.80;100.00;96839.90;106119;1281;22559;-92
2022/09/17 03:41:46;;;;;;;15.70;14.10;;;;;;;7.80;100.00;96841.80;106090;1281;22551;-91
2022/09/17 03:44:14;;;;;;;16.50;15.00;;;;;;;7.80;100.00;96843.41;106128;1281;23021;-92
2022/09/17 03:46:42;;;;;;;17.10;15.10;;;;;;;7.80;100.00;96842.90;106096;1281;22727;-89
2022/09/17 03:49:10;;;;;;;16.30;14.80;;;;;;;7.82;100.00;96842.11;106361;1281;22628;-92
2022/09/17 03:51:38;;;;;;;15.50;14.00;;;;;;;7.83;100.00;96839.30;105936;1281;25477;-90
2022/09/17 03:54:06;;;;;;;14.90;12.60;;;;;;;7.84;100.00;96834.37;106178;1281;25325;-90
2022/09/17 03:56:34;;;;;;;13.20;11.40;;;;;;;7.86;100.00;96829.19;105921;1281;24062;-92
2022/09/17 03:59:02;;;;;;;14.80;13.40;;;;;;;7.88;100.00;96826.98;106493;1281;22711;-89
2022/09/17 04:01:30;;;;;;;15.10;13.70;;;;;;;7.82;100.00;96823.50;108278;1281;22687;-88
2022/09/17 04:03:58;;;;;;;14.80;13.40;;;;;;;7.77;100.00;96824.89;107949;1281;24269;-90
2022/09/17 04:06:26;;;;;;;14.90;12.30;;;;;;;7.78;100.00;96818.17;108593;1280;22541;-89
2022/09/17 04:08:55;;;;;;;14.10;11.40;;;;;;;7.81;100.00;96820.16;108648;1281;25347;-91
2022/09/17 04:11:23;;;;;;;12.40;10.80;;;;;;;7.88;100.00;96820.51;106080;1282;23869;-92
2022/09/17 04:13:51;;;;;;;11.10;10.10;;;;;;;7.91;100.00;96818.48;106326;1281;22561;-92
2022/09/17 04:16:19;;;;;;;11.50;10.40;;;;;;;7.95;100.00;96817.73;106326;1281;25522;-91
2022/09/17 04:18:47;;;;;;;11.70;10.30;;;;;;;7.97;100.00;96823.42;106210;1279;22675;-91
2022/09/17 04:21:15;;;;;;;12.90;11.80;;;;;;;7.98;100.00;96828.36;105769;1281;24272;-89
2022/09/17 04:23:43;;;;;;;14.50;13.20;;;;;;;7.96;100.00;96831.50;105910;1281;22795;-91
2022/09/17 04:26:11;;;;;;;13.30;11.80;;;;;;;7.93;100.00;96826.98;106050;1279;24213;-92
2022/09/17 04:28:39;;;;;;;13.90;12.20;;;;;;;7.95;100.00;96825.70;105993;1281;25409;-92
2022/09/17 04:31:07;;;;;;;12.00;10.90;;;;;;;7.97;100.00;96819.96;106025;1281;22764;-91
2022/09/17 04:33:36;;;;;;;11.40;10.00;;;;;;;7.97;100.00;96820.69;106081;1281;22678;-93
2022/09/17 04:36:04;;;;;;;10.40;9.40;;;;;;;7.99;100.00;96815.86;106001;1281;22708;-91
2022/09/17 04:38:32;;;;;;;16.40;10.40;;;;;;;8.01;100.00;96814.65;106076;1281;22684;-91
2022/09/17 04:41:00;;;;;;;11.20;10.00;;;;;;;8.04;100.00;96814.79;106020;1281;25210;-92
2022/09/17 04:43:28;;;;;;;12.80;11.40;;;;;;;8.06;100.00;96814.13;106010;1281;25371;-91
2022/09/17 04:45:56;;;;;;;12.10;10.50;;;;;;;8.06;100.00;96815.68;105996;1281;22597;-90
2022/09/17 04:48:24;;;;;;;11.40;10.20;;;;;;;8.08;100.00;96818.90;105954;1281;22703;-90
2022/09/17 04:50:52;;;;;;;11.70;10.40;;;;;;;8.11;100.00;96817.70;105824;1281;22622;-90
2022/09/17 04:53:22;;;;;;;10.40;9.30;;;;;;;8.16;100.00;96825.58;106182;1281;22866;-93
2022/09/17 04:55:50;;;;;;;11.30;9.50;;;;;;;8.18;100.00;96828.02;106230;1279;24291;-90
2022/09/17 04:58:18;;;;;;;11.10;10.00;;;;;;;8.22;100.00;96833.59;105844;1281;22716;-91
2022/09/17 05:00:46;;;;;;;12.00;10.60;;;;;;;8.23;100.00;96836.34;106077;1280;22535;-89
2022/09/17 05:03:13;;;;;;;13.50;10.10;;;;;;;8.24;100.00;96835.52;106033;1281;25402;-91
2022/09/17 05:05:41;;;;;;;10.90;9.90;;;;;;;8.27;100.00;96834.77;106059;1280;25357;-91
2022/09/17 05:08:10;;;;;;;11.40;9.20;;;;;;;8.33;100.00;96836.00;106086;1281;22562;-92
2022/09/17 05:10:38;;;;;;;10.60;9.30;;;;;;;8.39;100.00;96840.38;106042;1281;25357;-91
2022/09/17 05:13:06;;;;;;;12.00;9.90;;;;;;;8.43;100.00;96842.09;105651;1282;22563;-91
2022/09/17 05:15:34;;;;;;;10.70;9.70;;;;;;;8.46;100.00;96840.69;105729;1281;22778;-91
2022/09/17 05:18:02;;;;;;;12.20;11.00;;;;;;;8.47;100.00;96835.55;105768;1281;24197;-92
2022/09/17 05:20:30;;;;;;;12.70;11.40;;;;;;;8.47;100.00;96828.36;106176;1281;24314;-90
2022/09/17 05:22:58;;;;;;;11.90;10.80;;;;;;;8.51;100.00;96826.80;106075;1281;22633;-92
2022/09/17 05:25:26;;;;;;;12.80;11.30;;;;;;;8.55;100.00;96834.36;105682;1282;22567;-92
2022/09/17 05:27:55;;;;;;;11.50;10.40;;;;;;;8.59;100.00;96839.66;106015;1281;23946;-91
2022/09/17 05:30:23;;;;;;;11.80;9.80;;;;;;;8.68;100.00;96828.91;106133;1281;24150;-91
2022/09/17 05:33:02;;;;;;;13.80;12.10;;;;;;;8.73;100.00;96827.26;105890;1281;22556;-89
2022/09/17 05:35:30;;;;;;;14.10;12.70;;;;;;;8.78;100.00;96826.72;105834;1284;22732;-90
2022/09/17 05:38:00;;;;;;;13.20;11.50;;;;;;;8.82;100.00;96826.55;106098;1281;25239;-92
2022/09/17 05:40:30;;;;;;;11.80;10.70;;;;;;;8.86;100.00;96827.41;105831;1281;25232;-90
2022/09/17 05:43:00;;;;;;;12.50;11.30;;;;;;;8.91;100.00;96827.27;106552;1280;22756;-87
2022/09/17 05:45:29;;;;;;;11.60;10.40;;;;;;;8.93;100.00;96832.85;109425;1281;22584;-87
2022/09/17 05:47:58;;;;;;;13.70;12.00;;;;;;;8.99;100.00;96836.02;109497;1280;22534;-89
2022/09/17 05:50:29;;;;;;;12.50;11.30;;;;;;;9.02;100.00;96839.35;107412;1281;24067;-92
2022/09/17 05:53:04;;;;;;;15.10;12.70;;;;;;;9.05;100.00;96843.34;105762;1281;22544;-90
2022/09/17 05:55:34;;;;;;;13.00;11.10;;;;;;;9.05;100.00;96841.17;105566;1281;24279;-92
2022/09/17 05:58:13;;;;;;;12.30;11.00;;;;;;;9.06;100.00;96840.85;105717;1281;24229;-91
2022/09/17 06:00:42;;;;;;;16.00;11.00;;;;;;;9.12;100.00;96838.63;105965;1280;24275;-90
2022/09/17 06:03:12;;;;;;;11.40;10.20;;;;;;;9.15;100.00;96833.70;105582;1283;22643;-91
2022/09/17 06:05:41;;;;;;;14.00;11.20;;;;;;;9.17;100.00;96834.46;105688;1281;25403;-90
2022/09/17 06:08:09;;;;;;;13.50;11.10;;;;;;;9.18;100.00;96836.46;105975;1281;24228;-92
2022/09/17 06:10:38;;;;;;;11.20;9.70;;;;;;;9.23;100.00;96849.18;105905;1281;23286;-90
2022/09/17 06:13:06;;;;;;;10.90;9.70;;;;;;;9.30;100.00;96845.98;106057;1280;22863;-90
2022/09/17 06:15:34;;;;;;;10.90;9.30;;;;;;;9.36;100.00;96834.25;106028;1281;24247;-91
2022/09/17 06:18:02;;;;;;;12.00;10.80;;;;;;;9.37;100.00;96838.61;105978;1281;26517;-91
2022/09/17 06:20:30;;;;;;;10.10;8.50;;;;;;;9.39;100.00;96833.08;106162;1281;22653;-90
2022/09/17 06:22:58;;;;;;;10.30;9.30;;;;;;;9.41;100.00;96825.71;106137;1281;24289;-91
2022/09/17 06:25:28;;;;;;;10.70;8.70;;;;;;;9.39;100.00;96810.92;105676;1281;25431;-90
2022/09/17 06:27:56;;;;;;;11.50;9.70;;;;;;;9.41;100.00;96796.13;106093;1281;24289;-90
2022/09/17 06:30:24;;;;;;;10.80;9.30;;;;;;;9.42;100.00;96803.03;105860;1283;25239;-90
2022/09/17 06:32:52;;;;;;;13.60;10.00;;;;;;;9.47;100.00;96800.39;106006;1280;22592;-90
2022/09/17 06:35:20;;;;;;;12.70;9.30;;;;;;;9.56;100.00;96807.21;105998;1280;22716;-91
2022/09/17 06:37:48;;;;;;;10.00;8.40;;;;;;;9.66;100.00;96815.73;105982;1281;22557;-91
2022/09/17 06:40:16;;;;;;;9.60;8.70;;;;;;;9.72;99.98;96815.52;105988;1281;22557;-91
2022/09/17 06:42:44;;;;;;;15.90;10.60;;;;;;;9.74;100.00;96817.30;105968;1281;22538;-90
2022/09/17 06:45:12;;;;;;;8.20;7.40;;;;;;;9.79;100.00;96820.66;106002;1281;22701;-91
2022/09/17 06:47:43;;;;;;;11.40;6.80;;;;;;;9.89;100.00;96824.55;106040;1281;22561;-91
2022/09/17 06:50:11;;;;;;;10.10;7.60;;;;;;;9.93;100.00;96827.10;106013;1281;23208;-92
2022/09/17 06:52:53;;;;;;;10.00;7.50;;;;;;;9.97;99.96;96835.73;105675;1281;24224;-91
2022/09/17 06:55:21;;;;;;;9.80;7.70;;;;;;;10.01;99.95;96836.89;106108;1279;24059;-93
2022/09/17 06:57:49;;;;;;;10.00;7.00;;;;;;;10.06;100.00;96830.27;106206;1281;22701;-91
2022/09/17 07:00:17;;;;;;;8.30;7.10;;;;;;;10.13;99.81;96832.55;105838;1281;25357;-91
2022/09/17 07:02:55;;;;;;;8.10;7.00;;;;;;;10.15;99.77;96845.73;106044;1280;26004;-91
2022/09/17 07:05:25;;;;;;;9.00;6.60;;;;;;;10.18;99.59;96848.52;106158;1281;25398;-90
2022/09/17 07:07:53;;;;;;;7.60;6.30;;;;;;;10.23;99.77;96836.58;106121;1281;24768;-91
2022/09/17 07:10:25;;;;;;;10.40;6.00;;;;;;;10.29;99.70;96837.00;106152;1281;22773;-91
2022/09/17 07:12:54;;;;;;;9.30;6.50;;;;;;;10.36;99.57;96839.35;106100;1281;22573;-91
2022/09/17 07:15:22;;;;;;;8.70;7.80;;;;;;;10.37;99.15;96825.17;106172;1281;22596;-92
2022/09/17 07:17:50;;;;;;;9.50;7.60;;;;;;;10.38;98.94;96820.67;105720;1281;22564;-92
2022/09/17 07:20:18;;;;;;;10.20;7.30;;;;;;;10.44;98.64;96830.77;106138;1281;22620;-93
2022/09/17 07:22:56;;;;;;;9.00;7.70;;;;;;;10.45;98.45;96826.25;106208;1281;25289;-93
2022/09/17 07:25:27;;;;;;;9.70;8.00;;;;;;;10.46;98.61;96826.91;106222;1281;24185;-91
2022/09/17 07:27:55;;;;;;;7.80;7.00;;;;;;;10.47;97.74;96834.11;106260;1281;22541;-94
2022/09/17 07:30:23;;;;;;;8.60;6.60;;;;;;;10.47;97.55;96839.81;106403;1281;23941;-90
2022/09/17 07:32:51;;;;;;;8.40;6.90;;;;;;;10.50;97.79;96846.70;106149;1281;24193;-93
2022/09/17 07:35:19;;;;;;;8.40;6.00;;;;;;;10.61;97.84;96858.66;106289;1281;22541;-91
2022/09/17 07:37:47;;;;;;;7.60;5.80;;;;;;;10.72;97.36;96865.05;106194;1281;25365;-92
2022/09/17 07:40:15;;;;;;;8.70;5.60;;;;;;;10.79;96.85;96861.77;106523;1281;22538;-92
2022/09/17 07:42:43;;;;;;;11.60;7.00;;;;;;;10.84;95.87;96865.91;106626;1281;22547;-91
2022/09/17 07:45:11;;;;;;;9.90;7.30;;;;;;;10.86;95.82;96872.93;105972;1281;24213;-91
2022/09/17 07:47:40;;;;;;;8.70;7.00;;;;;;;10.93;95.95;96869.94;105901;1281;22651;-92
2022/09/17 07:50:08;;;;;;;8.80;5.60;;;;;;;11.02;95.94;96872.52;106204;1279;22664;-92
2022/09/17 07:52:36;;;;;;;6.50;5.20;;;;;;;11.04;94.60;96874.92;106337;1281;22634;-92
2022/09/17 07:55:06;;;;;;;6.10;5.10;;;;;;;11.05;94.51;96872.02;106539;1281;25232;-92
2022/09/17 07:57:34;;;;;;;8.90;5.40;;;;;;;11.06;93.98;96877.73;106454;1281;22680;-92
2022/09/17 08:00:03;;;;;;;7.80;5.70;;;;;;;11.05;93.38;96870.39;106422;1280;22538;-92
2022/09/17 08:02:38;;;;;;;8.00;5.20;;;;;;;11.03;92.77;96878.42;106450;1281;23899;-91
2022/09/17 08:05:06;;;;;;;9.60;6.10;;;;;;;11.02;93.20;96880.90;106215;1281;22493;-92
2022/09/17 08:07:34;;;;;;;6.80;5.80;;;;;;;11.04;93.72;96881.90;106399;1281;22997;-93
2022/09/17 08:10:02;;;;;;;6.00;5.40;;;;;;;11.10;94.19;96885.70;106465;1280;22586;-91
2022/09/17 08:12:30;;;;;;;7.80;6.60;;;;;;;11.14;93.29;96884.23;106044;1281;23996;-92
2022/09/17 08:14:58;;;;;;;7.60;6.00;;;;;;;11.17;92.01;96878.02;109185;1280;22500;-88
2022/09/17 08:17:26;;;;;;;7.80;6.80;;;;;;;11.11;91.73;96862.95;109323;1270;22973;-86
2022/09/17 08:19:54;;;;;;;8.70;6.70;;;;;;;11.08;91.75;96858.88;108674;1279;25248;-90
2022/09/17 08:22:22;;;;;;;7.90;6.10;;;;;;;11.07;91.67;96855.40;106062;1281;22614;-92
2022/09/17 08:24:49;;;;;;;7.70;6.30;;;;;;;11.09;91.10;96862.55;106207;1281;24276;-89
2022/09/17 08:27:17;;;;;;;8.50;6.10;;;;;;;11.10;90.44;96857.95;106214;1279;24107;-92
2022/09/17 08:29:45;;;;;;;6.40;5.80;;;;;;;11.11;90.50;96862.00;106057;1281;24190;-90
2022/09/17 08:32:13;;;;;;;10.60;5.80;;;;;;;11.14;89.70;96866.69;106434;1279;24284;-92
2022/09/17 08:34:41;;;;;;;8.20;5.80;;;;;;;11.18;90.41;96868.98;106257;1279;22489;-93
2022/09/17 08:37:09;;;;;;;7.50;5.60;;;;;;;11.26;90.02;96866.95;106312;1278;25944;-92
2022/09/17 08:39:37;;;;;;;7.30;6.30;;;;;;;11.34;89.86;96860.73;106087;1281;22713;-93
2022/09/17 08:42:16;;;;;;;8.10;6.00;;;;;;;11.44;88.19;96863.90;106195;1279;22573;-92
2022/09/17 08:44:46;;;;;;;9.60;6.60;;;;;;;11.46;88.22;96869.91;106293;1281;24235;-92
2022/09/17 08:47:36;;;;;;;9.30;6.50;;;;;;;11.48;87.15;96884.79;106036;1281;25431;-91
2022/09/17 08:50:16;;;;;;;8.80;6.90;;;;;;;11.45;86.40;96883.07;106261;1279;22619;-93
2022/09/17 08:53:06;;;;;;;8.00;6.40;;;;;;;11.45;86.33;96872.52;105977;1281;22560;-93
2022/09/17 08:55:46;;;;;;;6.70;5.90;;;;;;;11.50;85.44;96861.91;106042;1279;22523;-93
2022/09/17 08:58:29;;;;;;;9.60;7.30;;;;;;;11.61;85.42;96855.30;105978;1281;25596;-92
2022/09/17 09:01:09;;;;;;;8.50;6.20;;;;;;;11.70;85.66;96854.61;106014;1281;24292;-91
2022/09/17 09:04:02;;;;;;;8.90;6.60;;;;;;;11.80;84.24;96847.65;106078;1279;22578;-91
2022/09/17 09:06:40;;;;;;;10.20;6.50;;;;;;;11.92;84.72;96842.36;106025;1280;22540;-90
2022/09/17 09:09:15;;;;;;;7.70;6.40;;;;;;;12.04;84.95;96844.49;106127;1279;22534;-91
2022/09/17 09:11:45;;;;;;;7.80;5.90;;;;;;;12.16;84.65;96847.53;105962;1281;22548;-92
2022/09/17 09:14:29;;;;;;;8.40;5.10;;;;;;;12.18;83.83;96847.05;106346;1279;22500;-92
2022/09/17 09:16:59;;;;;;;7.70;4.90;;;;;;;12.17;82.15;96846.08;106248;1279;24293;-92
2022/09/17 09:19:33;;;;;;;9.40;6.40;;;;;;;12.05;81.06;96842.30;106212;1281;22590;-92
2022/09/17 09:22:12;;;;;;;9.30;6.20;;;;;;;11.97;81.05;96847.78;106176;1281;22544;-92
2022/09/17 09:25:02;;;;;;;8.90;5.80;;;;;;;11.91;81.75;96845.89;106156;1281;25358;-90
2022/09/17 09:27:37;;;;;;;9.80;5.20;;;;;;;11.96;82.84;96851.30;105944;1281;24094;-92
2022/09/17 09:30:09;;;;;;;8.50;5.70;;;;;;;12.02;82.67;96854.99;106093;1280;25229;-90
2022/09/17 09:32:46;;;;;;;10.30;5.90;;;;;;;12.05;82.33;96867.08;106131;1281;25358;-91
2022/09/17 09:35:31;;;;;;;9.80;5.80;;;;;;;12.08;81.92;96875.23;106593;1281;22704;-92
2022/09/17 09:38:21;;;;;;;7.20;5.60;;;;;;;12.10;80.99;96872.30;106607;1279;22876;-92
2022/09/17 09:41:17;;;;;;;8.90;5.90;;;;;;;12.05;81.02;96866.20;106141;1281;22487;-91
2022/09/17 09:44:02;;;;;;;7.80;5.80;;;;;;;12.07;81.66;96867.20;106432;1281;25300;-91
2022/09/17 09:47:00;;;;;;;9.40;6.20;;;;;;;12.06;81.69;96869.39;106304;1279;23608;-91
2022/09/17 09:49:54;;;;;;;6.80;5.40;;;;;;;11.99;80.98;96872.34;106703;1281;22570;-89
2022/09/17 09:52:45;;;;;;;12.70;5.80;;;;;;;11.91;79.74;96873.18;109256;1279;22941;-86
2022/09/17 09:55:49;;;;;;;12.00;6.80;;;;;;;11.80;80.48;96878.20;108444;1279;1375378;-85
2022/09/17 09:58:37;;;;;;;17.20;6.70;;;;;;;11.79;81.06;96874.75;109450;1279;22615;-88
2022/09/17 10:01:15;;;;;;;7.70;5.10;;;;;;;11.84;80.88;96873.69;106913;1281;22570;-91
2022/09/17 10:03:46;;;;;;;7.50;4.90;;;;;;;11.84;80.87;96876.17;107375;1279;26608;-91
2022/09/17 10:06:16;;;;;;;8.20;5.50;;;;;;;11.80;81.17;96882.20;107016;1281;22738;-93
2022/09/17 10:08:56;;;;;;;6.70;4.80;;;;;;;11.79;81.11;96883.98;106647;1281;22652;-93
2022/09/17 10:11:32;;;;;;;7.50;4.50;;;;;;;11.77;80.54;96886.95;106204;1281;24230;-91
2022/09/17 10:14:20;;;;;;;5.80;3.80;;;;;;;11.75;80.50;96884.85;106375;1281;24231;-92
2022/09/17 10:16:48;;;;;;;6.30;4.90;;;;;;;11.80;80.81;96882.20;106412;1280;22574;-94
2022/09/17 10:19:24;;;;;;;8.50;4.70;;;;;;;11.88;80.68;96880.95;106252;1281;22763;-92
2022/09/17 10:22:13;;;;;;;8.70;5.20;;;;;;;11.97;80.85;96878.86;106043;1281;22579;-93
2022/09/17 10:24:41;;;;;;;7.50;5.70;;;;;;;12.05;79.49;96884.09;106193;1281;22791;-91
2022/09/17 10:27:18;;;;;;;6.80;5.40;;;;;;;12.04;79.11;96880.45;106151;1281;22602;-92
2022/09/17 10:29:50;;;;;;;9.30;6.80;;;;;;;12.08;79.51;96887.91;105881;1281;24232;-92
2022/09/17 10:32:20;;;;;;;6.70;4.70;;;;;;;12.14;79.72;96890.73;106126;1281;24286;-92
2022/09/17 10:35:15;;;;;;;6.40;3.70;;;;;;;12.20;79.57;96898.58;106252;1281;22650;-92
2022/09/17 10:37:46;;;;;;;10.70;4.50;;;;;;;12.21;78.79;96906.77;106361;1281;25363;-92
2022/09/17 10:40:19;;;;;;;6.20;3.90;;;;;;;12.20;78.43;96906.98;106826;1281;24332;-92
2022/09/17 10:42:50;;;;;;;4.00;3.40;;;;;;;12.18;77.55;96906.94;106751;1280;22560;-93
2022/09/17 10:45:30;;;;;;;5.30;3.30;;;;;;;12.16;77.06;96901.77;106834;1281;23820;-93
2022/09/17 10:47:59;;;;;;;6.60;3.70;;;;;;;12.18;76.96;96896.84;107007;1280;22537;-91
2022/09/17 10:50:29;;;;;;;5.40;3.30;;;;;;;12.24;77.00;96888.39;108684;1280;22519;-88
2022/09/17 10:53:15;;;;;;;5.50;3.30;;;;;;;12.34;77.25;96886.63;109507;1281;22531;-88
2022/09/17 10:55:45;;;;;;;7.10;4.30;;;;;;;12.47;76.79;96893.16;109295;1281;22635;-91
2022/09/17 10:58:25;;;;;;;5.80;3.50;;;;;;;12.57;76.12;96898.06;108728;1280;22713;-92
2022/09/17 11:01:11;;;;;;;9.60;3.50;;;;;;;12.71;75.57;96897.75;106355;1281;22592;-92
2022/09/17 11:04:03;;;;;;;6.80;4.00;;;;;;;12.86;75.93;96897.36;107974;1281;23252;-92
2022/09/17 11:09:25;;;;;;;6.90;5.00;;;;;;;12.97;74.94;96889.05;106928;1281;22548;-92
2022/09/17 11:12:12;;;;;;;5.70;3.70;;;;;;;12.89;74.46;96888.73;106667;1281;23003;-94
2022/09/17 11:14:52;;;;;;;5.30;3.80;;;;;;;12.73;74.39;96889.60;106445;1281;22713;-93
2022/09/17 11:17:54;;;;;;;4.90;3.50;;;;;;;12.53;74.19;96892.20;106327;1281;22702;-93
2022/09/17 11:21:03;;;;;;;5.80;3.90;;;;;;;12.37;75.03;96892.70;106465;1281;22694;-93
2022/09/17 11:23:57;;;;;;;8.50;5.00;;;;;;;12.23;75.55;96893.52;106001;1288;23750;-91
2022/09/17 11:27:19;;;;;;;6.70;4.30;;;;;;;12.13;75.92;96892.15;106150;1287;22588;-93
2022/09/17 11:30:05;;;;;;;6.00;4.50;;;;;;;12.02;76.16;96894.27;105249;1290;26646;-92
2022/09/17 11:32:51;;;;;;;6.60;4.40;;;;;;;11.93;76.99;96900.03;105368;1290;25309;-92
2022/09/17 11:35:27;;;;;;;7.20;4.80;;;;;;;11.94;77.50;96913.39;105622;1290;22592;-94
2022/09/17 11:38:13;;;;;;;6.10;4.70;;;;;;;11.90;78.02;96921.27;105767;1290;24526;-91
2022/09/17 11:40:59;;;;;;;6.80;4.90;;;;;;;11.84;77.76;96920.05;105357;1290;25368;-93
2022/09/17 11:43:33;;;;;;;10.60;5.20;;;;;;;11.81;77.96;96915.23;105122;1291;22585;-93
2022/09/17 11:46:08;;;;;;;8.40;5.50;;;;;;;11.78;78.20;96906.79;105064;1290;22551;-93
2022/09/17 11:48:46;;;;;;;7.70;5.60;;;;;;;11.80;78.20;96908.56;105401;1290;22940;-93
2022/09/17 11:51:27;;;;;;;12.20;5.90;;;;;;;11.87;78.65;96909.98;105208;1291;23990;-90
2022/09/17 11:54:05;;;;;;;7.50;5.20;;;;;;;11.89;78.88;96912.52;105258;1284;22547;-89
2022/09/17 11:56:42;;;;;;;8.60;6.50;;;;;;;11.87;79.10;96903.59;105953;1284;25482;-92